Time;durP1;ratioP1;P1;durP2;ratioP2;P2;SDS_P1;SDS_P2;PMS_P1;PMS_P2;Temp;Humidity;BMP_temperature;BMP_pressure;BME280_temperature;BME280_humidity;BME280_pressure;Samples;Min_cycle;Max_cycle;Signal;HPM_P1;HPM_P2
2022/03/10 00:02:24;;;;;;;;;;;2.20;66.30;;;1.11;68.02;101334.28;5026547;28;19948;-80
2022/03/10 00:04:51;;;;;;;;;;;2.10;66.70;;;1.17;67.48;101336.19;5043875;28;20402;-79
2022/03/10 00:07:18;;;;;;;;;;;1.90;66.50;;;1.24;68.53;101340.72;5010664;28;19929;-80
2022/03/10 00:09:45;;;;;;;;;;;1.90;67.70;;;1.13;68.58;101340.41;5027335;28;19963;-78
2022/03/10 00:12:12;;;;;;;;;;;1.90;68.30;;;1.00;71.41;101343.44;5042548;28;19926;-80
2022/03/10 00:14:40;;;;;;;;;;;1.90;69.30;;;0.92;72.14;101344.94;5011891;28;19930;-76
2022/03/10 00:17:07;;;;;;;;;;;1.80;69.90;;;0.88;72.05;101346.53;5024096;28;19933;-77
2022/03/10 00:19:34;;;;;;;;;;;1.90;70.40;;;0.79;72.93;101344.53;5041361;28;19925;-77
2022/03/10 00:22:01;;;;;;;;;;;1.70;71.20;;;0.75;73.34;101347.88;4991961;28;20406;-77
2022/03/10 00:24:28;;;;;;;;;;;2.50;72.40;;;0.73;72.91;101353.81;5008437;28;19925;-76
2022/03/10 00:26:55;;;;;;;;;;;1.60;71.70;;;0.65;71.71;101349.28;5040397;28;19930;-76
2022/03/10 00:29:22;;;;;;;;;;;1.50;71.50;;;0.63;72.39;101348.38;5024773;28;19979;-77
2022/03/10 00:31:49;;;;;;;;;;;1.30;72.00;;;0.51;72.31;101345.38;5009252;28;19926;-76
2022/03/10 00:34:16;;;;;;;;;;;1.40;72.40;;;0.31;76.38;101350.72;5040007;28;19948;-76
2022/03/10 00:36:43;;;;;;;;;;;3.90;74.80;;;0.30;78.95;101354.16;5040133;28;19925;-77
2022/03/10 00:39:09;;;;;;;;;;;3.80;77.30;;;0.22;75.90;101355.63;5040245;28;19930;-77
2022/03/10 00:41:36;;;;;;;;;;;3.00;75.00;;;0.20;73.93;101352.97;5009326;28;20453;-78
2022/03/10 00:44:03;;;;;;;;;;;1.30;73.60;;;0.15;79.58;101351.94;5039524;28;19947;-77
2022/03/10 00:46:30;;;;;;;;;;;1.20;76.80;;;0.13;82.27;101353.59;5009299;28;19930;-77
2022/03/10 00:48:57;;;;;;;;;;;1.20;78.10;;;0.13;82.95;101358.78;5040282;28;19929;-77
2022/03/10 00:51:24;;;;;;;;;;;2.90;80.20;;;0.02;84.14;101350.63;5040239;28;19969;-77
2022/03/10 00:53:51;;;;;;;;;;;1.10;80.30;;;0.17;83.20;101346.81;5007678;28;19932;-77
2022/03/10 00:56:18;;;;;;;;;;;1.80;80.50;;;0.09;84.70;101360.34;5009183;28;19952;-77
2022/03/10 00:58:45;;;;;;;;;;;1.00;81.40;;;0.09;81.82;101360.34;5008885;28;20391;-77
2022/03/10 01:01:12;;;;;;;;;;;0.80;80.70;;;-0.04;86.12;101363.34;5009348;28;19933;-77
2022/03/10 01:03:39;;;;;;;;;;;0.90;81.90;;;-0.04;88.26;101360.75;5022646;28;19948;-77
2022/03/10 01:06:06;;;;;;;;;;;1.10;84.10;;;0.01;86.96;101363.50;5007487;28;19929;-76
2022/03/10 01:08:33;;;;;;;;;;;0.90;83.50;;;-0.01;89.71;101363.44;5008657;28;20483;-76
2022/03/10 01:11:00;;;;;;;;;;;1.00;84.80;;;-0.05;86.41;101361.56;5009049;28;19941;-76
2022/03/10 01:13:27;;;;;;;;;;;2.90;85.00;;;-0.18;84.00;101362.84;5007740;28;19929;-76
2022/03/10 01:15:54;;;;;;;;;;;0.80;82.90;;;-0.12;82.13;101360.47;5007325;28;19926;-76
2022/03/10 01:18:21;;;;;;;;;;;0.80;82.30;;;-0.18;84.02;101363.72;5007421;28;19936;-76
2022/03/10 01:20:48;;;;;;;;;;;0.80;83.30;;;-0.12;88.38;101354.44;5023729;28;19953;-77
2022/03/10 01:23:15;;;;;;;;;;;1.50;85.70;;;-0.06;89.95;101354.66;5022870;28;19936;-77
2022/03/10 01:25:44;;;;;;;;;;;0.60;86.20;;;-0.02;86.76;101356.50;5027362;28;20508;-77
2022/03/10 01:28:12;;;;;;;;;;;0.80;85.20;;;-0.04;87.94;101361.66;4995243;28;19932;-76
2022/03/10 01:30:38;;;;;;;;;;;0.80;86.10;;;0.06;86.95;101361.94;5012958;28;19930;-76
2022/03/10 01:33:05;;;;;;;;;;;0.70;85.70;;;0.06;90.03;101352.50;5010477;28;19937;-77
2022/03/10 01:35:32;;;;;;;;;;;0.90;86.40;;;0.17;91.32;101352.00;5043656;28;19930;-77
2022/03/10 01:38:00;;;;;;;;;;;0.80;86.60;;;0.30;90.05;101346.38;5012479;28;19936;-77
2022/03/10 01:40:44;;;;;;;;;;;0.90;86.70;;;0.46;84.41;101349.50;5011264;28;19956;-76
2022/03/10 01:43:11;;;;;;;;;;;1.00;85.40;;;0.58;82.16;101343.88;5010169;28;19929;-77
2022/03/10 01:45:38;;;;;;;;;;;3.00;85.30;;;0.68;81.21;101346.78;5027004;28;19949;-76
2022/03/10 01:48:22;;;;;;;;;;;1.20;84.20;;;0.82;76.62;101334.25;5012679;28;20004;-76
2022/03/10 01:50:51;;;;;;;;;;;0.70;82.10;;;0.91;74.13;101340.59;5027213;28;19929;-76
2022/03/10 01:53:18;;;;;;;;;;;1.40;81.60;;;1.02;73.70;101343.50;5010134;28;19932;-77
2022/03/10 01:55:46;;;;;;;;;;;1.40;80.70;;;1.09;74.12;101340.25;5026908;28;19929;-78
2022/03/10 01:58:13;;;;;;;;;;;2.70;80.00;;;1.18;71.02;101339.69;5012380;28;19936;-77
2022/03/10 02:00:43;;;;;;;;;;;1.70;78.70;;;1.23;70.35;101343.28;5011864;28;19936;-77
2022/03/10 02:03:10;;;;;;;;;;;1.80;78.40;;;1.25;70.95;101328.66;5009780;28;20307;-77
2022/03/10 02:05:40;;;;;;;;;;;4.00;78.70;;;1.32;68.60;101335.75;5010644;28;19933;-77
2022/03/10 02:10:52;;;;;;;;;;;1.90;77.70;;;1.44;70.13;101342.16;5012985;28;19933;-81
2022/03/10 02:13:19;;;;;;;;;;;2.60;78.20;;;1.49;69.10;101344.06;5011919;28;19929;-79
2022/03/10 02:18:32;;;;;;;;;;;2.00;76.20;;;1.52;72.96;101345.88;5027271;28;19929;-79
2022/03/10 02:20:59;;;;;;;;;;;4.10;80.50;;;1.52;77.38;101344.13;5012972;28;19926;-80
2022/03/10 02:23:26;;;;;;;;;;;3.30;82.10;;;1.54;74.58;101339.88;5011378;28;19936;-79
2022/03/10 02:25:58;;;;;;;;;;;2.10;80.70;;;1.49;76.52;101354.44;5012573;28;20399;-80
2022/03/10 02:28:28;;;;;;;;;;;2.10;80.80;;;1.42;75.03;101349.91;5012826;28;19929;-78
2022/03/10 02:30:55;;;;;;;;;;;2.80;79.70;;;1.38;81.40;101358.41;5013861;28;20398;-79
2022/03/10 02:33:22;;;;;;;;;;;2.10;82.20;;;1.31;82.48;101359.06;5011002;28;19980;-77
2022/03/10 02:35:49;;;;;;;;;;;2.10;83.10;;;1.04;nan;101349.63;5011241;28;19933;-77
2022/03/10 02:38:19;;;;;;;;;;;3.80;85.30;;;0.83;87.20;101348.97;5026334;28;20387;-77
2022/03/10 02:40:49;;;;;;;;;;;1.90;84.60;;;0.66;89.83;101340.69;5010708;28;19936;-77
2022/03/10 02:43:20;;;;;;;;;;;1.70;84.30;;;0.61;87.34;101341.38;5025573;28;20409;-77
2022/03/10 02:45:51;;;;;;;;;;;1.50;84.50;;;0.38;89.55;101339.78;4993928;28;19976;-77
2022/03/10 02:48:21;;;;;;;;;;;1.30;84.60;;;0.25;91.42;101345.38;5009391;28;20024;-76
2022/03/10 02:50:49;;;;;;;;;;;1.10;86.70;;;0.21;92.59;101348.69;5042719;28;19982;-77
2022/03/10 02:53:16;;;;;;;;;;;1.10;86.70;;;0.15;95.28;101346.75;5041221;28;19930;-77
2022/03/10 02:55:43;;;;;;;;;;;1.00;89.00;;;-0.12;93.97;101342.38;5042499;28;19925;-77
2022/03/10 02:58:10;;;;;;;;;;;1.10;88.00;;;0.03;92.79;101348.91;5042656;28;19937;-77
2022/03/10 03:00:37;;;;;;;;;;;0.90;88.50;;;-0.23;93.11;101352.34;5010859;28;19935;-77
2022/03/10 03:03:04;;;;;;;;;;;0.90;88.90;;;-0.20;95.27;101359.34;5041947;28;20015;-76
2022/03/10 03:05:31;;;;;;;;;;;0.80;89.70;;;-0.18;94.74;101361.13;5024612;28;19936;-76
2022/03/10 03:07:59;;;;;;;;;;;0.70;89.70;;;-0.19;96.71;101363.69;5006332;28;19929;-77
2022/03/10 03:10:26;;;;;;;;;;;0.60;90.20;;;-0.01;99.41;101366.03;5006354;28;20379;-77
2022/03/10 03:12:53;;;;;;;;;;;0.60;91.10;;;-0.11;98.63;101366.53;4990649;28;19934;-77
2022/03/10 03:15:20;;;;;;;;;;;0.70;91.30;;;-0.05;97.32;101377.09;5005898;28;20398;-77
2022/03/10 03:17:47;;;;;;;;;;;0.70;91.00;;;-0.12;99.67;101380.31;4990367;28;19941;-77
2022/03/10 03:20:15;;;;;;;;;;;0.80;91.10;;;-0.09;98.52;101388.19;4989782;28;19925;-77
2022/03/10 03:22:43;;;;;;;;;;;0.80;91.00;;;-0.07;100.00;101384.84;5005825;28;20650;-77
2022/03/10 03:25:12;;;;;;;;;;;0.80;91.30;;;-0.07;98.11;101384.84;4992395;28;20381;-80
2022/03/10 03:27:47;;;;;;;;;;;0.60;90.90;;;-0.03;98.74;101378.94;5027371;28;19926;-80
2022/03/10 03:30:14;;;;;;;;;;;0.70;90.90;;;-0.10;100.00;101370.91;5044565;28;19930;-80
2022/03/10 03:32:41;;;;;;;;;;;0.80;91.50;;;-0.20;100.00;101377.44;5011033;28;20310;-80
2022/03/10 03:35:08;;;;;;;;;;;0.60;91.90;;;-0.19;100.00;101374.03;5011029;28;19937;-78
2022/03/10 03:37:34;;;;;;;;;;;0.60;91.60;;;-0.19;100.00;101379.22;4995038;28;19929;-81
2022/03/10 03:40:03;;;;;;;;;;;0.60;91.30;;;-0.29;100.00;101380.56;5011678;28;19953;-79
2022/03/10 03:42:34;;;;;;;;;;;0.60;91.70;;;-0.30;100.00;101382.28;5010635;28;19935;-79
2022/03/10 03:45:01;;;;;;;;;;;-0.30;91.70;;;-0.40;100.00;101379.28;5011239;28;20000;-81
2022/03/10 03:47:31;;;;;;;;;;;2.80;92.50;;;-0.53;99.84;101388.31;5010328;28;19933;-80
2022/03/10 03:49:58;;;;;;;;;;;0.50;90.80;;;-0.57;100.00;101385.56;5011221;28;19956;-80
2022/03/10 03:52:25;;;;;;;;;;;0.30;91.60;;;-0.71;100.00;101391.91;5027243;28;19930;-80
2022/03/10 03:54:52;;;;;;;;;;;3.00;92.80;;;-0.61;100.00;101395.75;5027378;28;19941;-81
2022/03/10 03:57:18;;;;;;;;;;;0.30;92.10;;;-0.57;100.00;101397.63;5026674;28;20347;-80
2022/03/10 03:59:45;;;;;;;;;;;0.30;92.80;;;-0.49;100.00;101393.63;5043290;28;20572;-79
2022/03/10 04:02:12;;;;;;;;;;;2.70;93.20;;;-0.48;100.00;101402.28;5042092;28;19932;-80
2022/03/10 04:04:42;;;;;;;;;;;0.40;92.20;;;-0.61;100.00;101406.09;5010997;28;20673;-79
2022/03/10 04:07:09;;;;;;;;;;;0.30;91.70;;;-0.76;100.00;101403.78;5010450;28;19929;-79
2022/03/10 04:09:36;;;;;;;;;;;0.30;92.50;;;-0.69;100.00;101399.75;4995410;28;19933;-80
2022/03/10 04:12:03;;;;;;;;;;;2.70;93.40;;;-0.79;100.00;101406.25;5027614;28;19929;-80
2022/03/10 04:14:30;;;;;;;;;;;0.30;92.60;;;-0.81;100.00;101397.56;5011626;28;19933;-80
2022/03/10 04:16:57;;;;;;;;;;;0.10;93.20;;;-0.96;100.00;101400.41;5027577;28;19932;-79
2022/03/10 04:19:24;;;;;;;;;;;0.30;92.60;;;-1.13;100.00;101400.63;5012024;28;20003;-80
2022/03/10 04:21:51;;;;;;;;;;;2.90;93.20;;;-1.26;100.00;101395.75;5027476;28;19929;-79
2022/03/10 04:24:18;;;;;;;;;;;0.00;92.10;;;-1.46;100.00;101404.47;5009299;28;19932;-80
2022/03/10 04:26:45;;;;;;;;;;;0.20;91.70;;;-1.43;100.00;101402.00;5026306;28;19930;-79
2022/03/10 04:29:13;;;;;;;;;;;-0.10;92.00;;;-1.44;100.00;101389.91;5025976;28;19936;-78
2022/03/10 04:31:43;;;;;;;;;;;0.10;92.80;;;-1.51;100.00;101397.34;5026195;28;19929;-77
2022/03/10 04:34:10;;;;;;;;;;;-0.40;92.20;;;-1.52;100.00;101393.88;5009876;28;19968;-77
2022/03/10 04:36:37;;;;;;;;;;;-0.30;92.60;;;-1.54;100.00;101387.75;5009305;28;20339;-79
2022/03/10 04:39:04;;;;;;;;;;;-0.40;94.10;;;-1.41;100.00;101393.44;5009165;28;19925;-77
2022/03/10 04:41:34;;;;;;;;;;;-0.40;94.10;;;-1.46;100.00;101385.50;5025748;28;19937;-78
2022/03/10 04:44:01;;;;;;;;;;;-0.40;94.90;;;-1.43;100.00;101380.47;5041679;28;19948;-77
2022/03/10 04:46:28;;;;;;;;;;;0.80;94.40;;;-1.58;100.00;101378.13;5026337;28;19985;-77
2022/03/10 04:48:55;;;;;;;;;;;-0.50;93.70;;;-1.63;100.00;101380.50;5010060;28;20345;-76
2022/03/10 04:51:22;;;;;;;;;;;-0.10;93.80;;;-1.71;100.00;101379.31;5026500;28;19925;-78
2022/03/10 04:53:49;;;;;;;;;;;-0.60;94.40;;;-1.51;100.00;101387.03;5009153;28;19932;-78
2022/03/10 04:56:16;;;;;;;;;;;-0.60;94.10;;;-1.59;100.00;101384.97;5010582;28;19929;-77
2022/03/10 04:58:43;;;;;;;;;;;-0.60;94.40;;;-1.65;100.00;101389.91;5012207;28;20410;-78
2022/03/10 05:01:11;;;;;;;;;;;-0.30;94.60;;;-1.71;100.00;101394.81;5011787;28;19958;-78
2022/03/10 05:03:38;;;;;;;;;;;-0.60;95.00;;;-1.83;100.00;101389.97;5029162;28;19926;-78
2022/03/10 05:06:08;;;;;;;;;;;-0.70;94.50;;;-1.77;100.00;101400.59;5006513;28;19930;-79
2022/03/10 05:08:35;;;;;;;;;;;-0.70;93.70;;;-1.97;100.00;101397.13;5010345;28;19930;-80
2022/03/10 05:11:02;;;;;;;;;;;-0.70;94.20;;;-1.92;100.00;101405.94;5019884;28;19926;-78
2022/03/10 05:13:32;;;;;;;;;;;-0.90;94.60;;;-2.04;100.00;101403.72;5014823;28;19930;-79
2022/03/10 05:15:59;;;;;;;;;;;-0.50;94.70;;;-1.94;100.00;101402.41;5016016;28;19925;-79
2022/03/10 05:18:26;;;;;;;;;;;-1.00;94.90;;;-1.83;100.00;101404.59;5015948;28;20389;-82
2022/03/10 05:20:53;;;;;;;;;;;-0.90;95.10;;;-1.92;100.00;101405.94;5000022;28;20365;-82
2022/03/10 05:23:20;;;;;;;;;;;-1.00;95.50;;;-1.87;100.00;101412.22;4995147;28;19937;-80
2022/03/10 05:25:48;;;;;;;;;;;-0.50;96.00;;;-2.01;100.00;101397.81;4994818;28;20436;-79
2022/03/10 05:28:15;;;;;;;;;;;0.40;96.20;;;-2.10;100.00;101407.72;5004465;28;19932;-80
2022/03/10 05:30:42;;;;;;;;;;;-0.50;95.10;;;-2.12;100.00;101409.34;5016398;28;19926;-80
2022/03/10 05:33:10;;;;;;;;;;;-1.00;95.00;;;-2.08;100.00;101411.25;5014648;28;19936;-79
2022/03/10 05:35:39;;;;;;;;;;;-0.90;96.40;;;-2.12;100.00;101405.06;5000089;28;20024;-77
2022/03/10 05:38:09;;;;;;;;;;;-1.00;96.70;;;-2.12;100.00;101406.78;5015713;28;20371;-78
2022/03/10 05:40:36;;;;;;;;;;;-1.10;96.50;;;-2.04;100.00;101406.28;5012127;28;19933;-78
2022/03/10 05:43:03;;;;;;;;;;;-1.10;96.50;;;-2.01;100.00;101408.13;5032425;28;19940;-79
2022/03/10 05:45:30;;;;;;;;;;;-1.10;96.10;;;-1.98;100.00;101409.94;5001565;28;20208;-79
2022/03/10 05:47:57;;;;;;;;;;;-1.00;96.00;;;-2.09;100.00;101409.47;5038850;28;19926;-78
2022/03/10 05:50:25;;;;;;;;;;;1.00;96.10;;;-2.38;100.00;101412.53;5043814;28;19936;-79
2022/03/10 05:52:52;;;;;;;;;;;-1.10;95.80;;;-2.55;100.00;101414.31;5013423;28;19926;-78
2022/03/10 05:55:20;;;;;;;;;;;-0.90;95.30;;;-2.39;100.00;101422.75;5034765;28;19926;-78
2022/03/10 05:57:47;;;;;;;;;;;-1.30;95.70;;;-2.23;100.00;101424.34;5020220;28;20387;-78
2022/03/10 06:00:15;;;;;;;;;;;-1.40;97.00;;;-2.15;100.00;101435.88;5034043;28;19933;-79
2022/03/10 06:02:42;;;;;;;;;;;-1.20;97.30;;;-2.06;100.00;101430.25;5049243;28;20383;-78
2022/03/10 06:05:09;;;;;;;;;;;-1.10;97.80;;;-1.99;100.00;101432.31;5017816;28;19979;-78
2022/03/10 06:07:36;;;;;;;;;;;1.90;98.30;;;-2.08;100.00;101434.44;5010626;28;19932;-79
2022/03/10 06:10:04;;;;;;;;;;;-1.20;97.70;;;-2.03;100.00;101430.38;5003190;28;20003;-79
2022/03/10 06:12:32;;;;;;;;;;;-1.00;97.50;;;-2.01;100.00;101433.94;5021123;28;20334;-80
2022/03/10 06:15:01;;;;;;;;;;;-1.20;97.40;;;-2.05;100.00;101432.91;5004642;28;19935;-79
2022/03/10 06:17:29;;;;;;;;;;;1.50;98.30;;;-2.12;100.00;101433.44;5052999;28;20005;-79
2022/03/10 06:19:57;;;;;;;;;;;1.30;97.90;;;-2.13;100.00;101434.25;5016926;28;19996;-79
2022/03/10 06:22:27;;;;;;;;;;;-1.10;97.50;;;-2.07;100.00;101436.22;5054836;28;19925;-79
2022/03/10 06:24:53;;;;;;;;;;;-0.90;97.60;;;-2.01;100.00;101434.78;5005613;28;19929;-81
2022/03/10 06:27:23;;;;;;;;;;;-1.10;97.20;;;-1.95;100.00;101439.34;5038389;28;19934;-80
2022/03/10 06:29:51;;;;;;;;;;;-1.00;97.40;;;-2.02;100.00;101445.06;5039023;28;19976;-80
2022/03/10 06:32:19;;;;;;;;;;;-1.00;97.90;;;-1.95;100.00;101444.50;5023628;28;20393;-80
2022/03/10 06:34:48;;;;;;;;;;;-0.90;97.80;;;-1.90;100.00;101449.88;5024066;28;19925;-81
2022/03/10 06:37:18;;;;;;;;;;;1.30;98.40;;;-2.07;100.00;101451.69;5039247;28;19925;-81
2022/03/10 06:39:45;;;;;;;;;;;1.00;97.80;;;-2.05;100.00;101450.97;5022562;28;19995;-80
2022/03/10 06:42:12;;;;;;;;;;;0.30;97.80;;;-1.98;100.00;101457.28;5009263;28;19926;-80
2022/03/10 06:44:39;;;;;;;;;;;-1.00;97.40;;;-1.96;100.00;101455.66;5010260;28;19926;-82
2022/03/10 06:47:09;;;;;;;;;;;2.60;98.30;;;-1.91;100.00;101459.31;5026888;28;20375;-80
2022/03/10 06:49:36;;;;;;;;;;;-1.00;97.30;;;-1.76;100.00;101456.53;5005707;28;19989;-80
2022/03/10 06:52:04;;;;;;;;;;;-0.50;97.50;;;-1.61;100.00;101464.06;5021607;28;19939;-81
2022/03/10 06:54:31;;;;;;;;;;;-0.80;97.50;;;-1.74;100.00;101469.50;5013326;28;19968;-82
2022/03/10 06:56:58;;;;;;;;;;;1.90;98.50;;;-1.76;100.00;101466.84;5014070;28;19925;-82
2022/03/10 06:59:25;;;;;;;;;;;0.00;97.90;;;-1.57;100.00;101467.66;4979887;28;20016;-81
2022/03/10 07:01:52;;;;;;;;;;;-1.10;97.70;;;-1.53;100.00;101469.53;4997466;28;19925;-82
2022/03/10 07:04:20;;;;;;;;;;;-2.40;97.60;;;-1.51;100.00;101469.63;5000336;28;19930;-81
2022/03/10 07:06:48;;;;;;;;;;;1.60;98.50;;;-1.48;100.00;101459.44;5012215;28;19926;-81
2022/03/10 07:09:15;;;;;;;;;;;1.40;98.50;;;-1.30;100.00;101470.53;5014915;28;19926;-84
2022/03/10 07:11:42;;;;;;;;;;;1.60;98.50;;;-1.21;100.00;101474.34;5014391;28;19930;-84
2022/03/10 07:14:09;;;;;;;;;;;-0.50;97.60;;;-1.05;100.00;101476.75;5015717;28;19926;-81
2022/03/10 07:16:36;;;;;;;;;;;-1.60;97.30;;;-0.87;100.00;101484.34;5012568;28;19933;-82
2022/03/10 07:19:08;;;;;;;;;;;3.40;98.60;;;-0.67;100.00;101479.13;4997252;28;20028;-81
2022/03/10 07:21:37;;;;;;;;;;;3.10;98.40;;;-0.50;100.00;101476.31;4996501;28;20358;-82
2022/03/10 07:24:05;;;;;;;;;;;0.10;96.80;;;-0.29;100.00;101478.88;5013435;28;19925;-82
2022/03/10 07:26:33;;;;;;;;;;;0.20;96.80;;;-0.13;100.00;101471.69;4967610;28;20362;-81
2022/03/10 07:29:01;;;;;;;;;;;1.40;97.30;;;0.03;100.00;101479.19;5012587;28;19937;-81
2022/03/10 07:31:31;;;;;;;;;;;2.70;97.40;;;0.25;100.00;101493.81;5005609;28;19979;-80
2022/03/10 07:33:58;;;;;;;;;;;0.20;96.10;;;0.44;100.00;101490.97;5020905;28;19960;-80
2022/03/10 07:36:25;;;;;;;;;;;2.60;96.60;;;0.56;100.00;101475.88;5020824;28;19995;-81
2022/03/10 07:38:53;;;;;;;;;;;3.60;96.10;;;0.74;100.00;101492.88;5019685;28;19929;-79
2022/03/10 07:41:20;;;;;;;;;;;-0.80;94.60;;;0.88;100.00;101481.28;5004600;28;19930;-80
2022/03/10 07:43:47;;;;;;;;;;;1.10;95.00;;;1.08;100.00;101487.16;5018510;28;19925;-79
2022/03/10 07:46:14;;;;;;;;;;;4.10;96.00;;;1.24;100.00;101485.06;5016373;28;20411;-82
2022/03/10 07:48:41;;;;;;;;;;;1.60;95.00;;;1.45;100.00;101486.56;4995961;28;20019;-82
2022/03/10 07:51:08;;;;;;;;;;;3.90;95.50;;;1.63;100.00;101481.06;4997603;28;19968;-80
2022/03/10 07:53:35;;;;;;;;;;;0.90;94.20;;;1.74;100.00;101486.59;4995944;28;19933;-82
2022/03/10 07:56:04;;;;;;;;;;;4.30;95.10;;;1.84;99.93;101478.25;5012873;28;19934;-81
2022/03/10 07:58:32;;;;;;;;;;;2.60;94.10;;;2.00;100.00;101476.97;5012200;28;19926;-81
2022/03/10 08:00:59;;;;;;;;;;;5.10;95.40;;;2.10;99.54;101467.72;4999352;28;19953;-81
2022/03/10 08:03:26;;;;;;;;;;;2.70;94.30;;;2.26;97.77;101472.56;5001096;28;19925;-80
2022/03/10 08:05:54;;;;;;;;;;;5.70;95.00;;;2.41;96.14;101453.91;5026462;28;19943;-80
2022/03/10 08:08:21;;;;;;;;;;;2.90;93.90;;;2.61;93.96;101461.34;5003745;28;20028;-80
2022/03/10 08:10:48;;;;;;;;;;;2.90;93.30;;;2.73;92.27;101458.16;5036017;28;19925;-80
2022/03/10 08:13:15;;;;;;;;;;;3.00;92.90;;;2.83;90.64;101451.50;5040497;28;19925;-80
2022/03/10 08:15:43;;;;;;;;;;;3.20;92.70;;;2.96;88.32;101457.91;5024928;28;19925;-80
2022/03/10 08:18:11;;;;;;;;;;;4.10;92.70;;;3.10;87.07;101459.13;5040298;28;19929;-80
2022/03/10 08:20:40;;;;;;;;;;;3.50;92.40;;;3.20;85.58;101456.72;5031438;28;19933;-80
2022/03/10 08:23:07;;;;;;;;;;;3.60;92.00;;;3.34;85.01;101460.53;5005492;28;19925;-80
2022/03/10 08:25:36;;;;;;;;;;;3.60;91.90;;;3.48;82.14;101449.56;5022647;28;19991;-79
2022/03/10 08:28:05;;;;;;;;;;;4.90;91.90;;;3.55;80.20;101448.88;5023484;28;19930;-80
2022/03/10 08:30:32;;;;;;;;;;;3.90;91.20;;;3.77;81.94;101441.50;5004397;28;19929;-81
2022/03/10 08:32:59;;;;;;;;;;;6.00;92.00;;;3.81;79.21;101439.03;4978505;28;19968;-81
2022/03/10 08:35:26;;;;;;;;;;;4.10;91.10;;;3.98;76.87;101441.09;4995268;28;20386;-81
2022/03/10 08:37:53;;;;;;;;;;;4.30;90.70;;;4.15;73.41;101431.03;5011045;28;20486;-81
2022/03/10 08:40:20;;;;;;;;;;;4.30;90.30;;;4.28;70.61;101432.13;4975253;28;19930;-82
2022/03/10 08:42:49;;;;;;;;;;;4.10;89.10;;;4.48;69.00;101429.91;5007280;28;20012;-80
2022/03/10 08:45:18;;;;;;;;;;;4.70;88.40;;;4.62;67.51;101424.91;5006030;28;19926;-81
2022/03/10 08:47:45;;;;;;;;;;;4.90;87.70;;;4.68;66.37;101422.44;5007317;28;19936;-81
2022/03/10 08:50:19;;;;;;;;;;;6.60;88.10;;;4.85;65.06;101413.13;5005887;28;19932;-81
2022/03/10 08:52:46;;;;;;;;;;;4.90;86.00;;;4.96;63.49;101422.03;5008049;28;19961;-80
2022/03/10 08:55:13;;;;;;;;;;;6.10;85.50;;;5.06;62.98;101418.69;4992741;28;19925;-82
2022/03/10 08:57:40;;;;;;;;;;;5.70;84.90;;;5.18;62.50;101411.91;5011687;28;19929;-82
2022/03/10 09:00:11;;;;;;;;;;;5.40;84.10;;;5.32;61.80;101412.13;5010436;28;19926;-81
2022/03/10 09:02:40;;;;;;;;;;;5.60;83.50;;;5.47;61.05;101419.28;4995891;28;19975;-80
2022/03/10 09:05:08;;;;;;;;;;;5.60;83.40;;;5.62;60.41;101416.88;4997034;28;19951;-81
2022/03/10 09:07:36;;;;;;;;;;;5.80;82.50;;;5.62;59.06;101405.56;4996709;28;19933;-80
2022/03/10 09:10:09;;;;;;;;;;;6.00;82.10;;;5.79;58.46;101403.16;4996854;28;19932;-80
2022/03/10 09:12:38;;;;;;;;;;;5.90;80.50;;;5.93;58.19;101399.00;5013620;28;19973;-80
2022/03/10 09:15:06;;;;;;;;;;;6.10;80.30;;;6.06;57.35;101391.34;5013733;28;20020;-81
2022/03/10 09:17:33;;;;;;;;;;;6.20;79.60;;;6.26;56.07;101395.88;4995940;28;19925;-80
2022/03/10 09:20:00;;;;;;;;;;;6.40;78.50;;;6.41;54.96;101387.34;4995221;28;19929;-81
2022/03/10 09:22:31;;;;;;;;;;;6.50;77.70;;;6.55;55.02;101388.31;5011079;28;20390;-80
2022/03/10 09:24:58;;;;;;;;;;;6.60;76.90;;;6.64;54.43;101382.31;4994655;28;19971;-80
2022/03/10 09:27:25;;;;;;;;;;;6.70;76.30;;;6.79;53.03;101376.31;5010549;28;20025;-79
2022/03/10 09:29:52;;;;;;;;;;;6.90;75.50;;;6.91;52.82;101386.00;5011501;28;19949;-80
2022/03/10 09:32:19;;;;;;;;;;;7.10;74.80;;;7.00;52.65;101380.84;5011443;28;19932;-79
2022/03/10 09:34:46;;;;;;;;;;;7.20;73.80;;;7.12;52.43;101380.03;5013513;28;19941;-79
2022/03/10 09:37:16;;;;;;;;;;;8.30;74.00;;;7.24;51.28;101374.91;5034900;28;19931;-80
2022/03/10 09:39:43;;;;;;;;;;;7.40;72.30;;;7.46;51.02;101375.00;5031540;28;19930;-81
2022/03/10 09:42:11;;;;;;;;;;;9.90;72.90;;;7.58;50.42;101375.94;5016451;28;20425;-80
2022/03/10 09:44:42;;;;;;;;;;;7.60;70.50;;;7.69;50.10;101371.63;4999866;28;20024;-81
2022/03/10 09:47:10;;;;;;;;;;;7.80;70.40;;;7.87;49.75;101369.94;5020472;28;19925;-78
2022/03/10 09:49:38;;;;;;;;;;;8.00;69.70;;;8.07;49.23;101373.47;5013265;28;19925;-78
2022/03/10 09:52:08;;;;;;;;;;;8.40;69.10;;;8.29;48.44;101367.41;5029064;28;20036;-79
2022/03/10 09:54:37;;;;;;;;;;;8.30;68.10;;;8.38;47.16;101362.19;5017467;28;19929;-80
2022/03/10 09:57:06;;;;;;;;;;;8.60;66.00;;;8.55;46.67;101361.38;4999165;28;19929;-81
2022/03/10 09:59:32;;;;;;;;;;;8.60;64.70;;;8.69;45.72;101363.97;5016475;28;20028;-80
2022/03/10 10:02:03;;;;;;;;;;;8.70;63.60;;;8.72;45.23;101361.34;4998458;28;19985;-82
2022/03/10 10:04:30;;;;;;;;;;;8.80;62.00;;;8.86;44.65;101353.47;4998318;28;19992;-82
2022/03/10 10:07:05;;;;;;;;;;;6.60;60.50;;;8.92;44.67;101359.59;4997800;28;19925;-81
2022/03/10 10:09:57;;;;;;;;;;;9.00;60.30;;;9.02;43.78;101355.22;4999971;28;19941;-80
2022/03/10 10:12:31;;;;;;;;;;;10.30;60.00;;;9.18;44.07;101361.28;5018666;28;19936;-80
2022/03/10 10:15:00;;;;;;;;;;;9.20;59.20;;;9.27;44.10;101344.63;5003768;28;19925;-80
2022/03/10 10:17:56;;;;;;;;;;;7.90;58.40;;;9.49;43.47;101358.56;5018630;28;19928;-80
2022/03/10 10:20:48;;;;;;;;;;;9.80;58.70;;;9.56;42.91;101350.69;5018085;28;19941;-80
2022/03/10 10:23:17;;;;;;;;;;;9.60;57.50;;;9.62;42.54;101353.28;5016292;28;19929;-82
2022/03/10 10:25:57;;;;;;;;;;;9.70;57.00;;;9.79;42.59;101353.22;5032415;28;19936;-82
2022/03/10 10:28:32;;;;;;;;;;;9.80;57.00;;;9.79;42.21;101340.91;5016386;28;19952;-79
2022/03/10 10:31:03;;;;;;;;;;;9.90;56.40;;;9.93;42.30;101350.50;5032485;28;20120;-80
2022/03/10 10:33:34;;;;;;;;;;;9.90;56.30;;;10.14;41.42;101343.34;5015893;28;19926;-80
2022/03/10 10:36:18;;;;;;;;;;;10.10;55.20;;;10.29;41.26;101352.91;5032086;28;19929;-80
2022/03/10 10:38:47;;;;;;;;;;;10.20;54.80;;;10.24;41.19;101341.56;5016042;28;20080;-81
2022/03/10 10:41:20;;;;;;;;;;;10.30;54.40;;;10.38;40.92;101346.69;5015119;28;19937;-80
2022/03/10 10:43:53;;;;;;;;;;;10.50;54.20;;;10.42;40.72;101337.94;5014562;28;19925;-80
2022/03/10 10:46:38;;;;;;;;;;;10.40;53.90;;;10.61;40.17;101333.41;5014934;28;19929;-81
2022/03/10 10:49:15;;;;;;;;;;;10.60;53.20;;;10.67;40.44;101335.09;5015038;28;19933;-79
2022/03/10 10:51:46;;;;;;;;;;;10.70;53.10;;;10.72;40.01;101330.66;5014627;28;19945;-80
2022/03/10 10:54:19;;;;;;;;;;;10.70;52.80;;;10.90;39.77;101329.63;5013930;28;19983;-80
2022/03/10 10:56:49;;;;;;;;;;;10.80;52.40;;;11.01;40.10;101322.50;5013245;28;20329;-80
2022/03/10 10:59:29;;;;;;;;;;;10.90;52.40;;;11.15;39.27;101326.72;5014719;28;19976;-80
2022/03/10 11:02:17;;;;;;;;;;;11.10;52.10;;;11.23;39.45;101318.72;5014560;28;19926;-81
2022/03/10 11:04:49;;;;;;;;;;;11.10;51.70;;;11.27;39.37;101309.91;5013881;28;19933;-81
2022/03/10 11:07:19;;;;;;;;;;;11.30;51.60;;;11.41;39.10;101297.44;5000367;28;20298;-81
2022/03/10 11:09:47;;;;;;;;;;;11.70;51.80;;;11.47;38.99;101301.75;5012885;28;19976;-81
2022/03/10 11:12:16;;;;;;;;;;;11.20;51.30;;;11.65;38.20;101303.28;5021872;28;19953;-81
2022/03/10 11:14:44;;;;;;;;;;;11.60;50.50;;;11.90;37.64;101297.66;5030721;28;19996;-81
2022/03/10 11:17:13;;;;;;;;;;;11.80;50.10;;;11.87;37.60;101282.75;5021176;28;19929;-80
2022/03/10 11:19:45;;;;;;;;;;;11.90;49.80;;;12.18;37.79;101281.47;5015799;28;19929;-77
2022/03/10 11:22:43;;;;;;;;;;;12.00;50.10;;;12.37;37.61;101275.88;5014877;28;19932;-78
2022/03/10 11:25:35;;;;;;;;;;;12.20;49.30;;;12.71;36.09;101284.03;5015718;28;19930;-77
2022/03/10 11:28:10;;;;;;;;;;;12.40;48.60;;;12.77;36.07;101270.75;5014753;28;19992;-78
2022/03/10 11:30:38;;;;;;;;;;;12.70;48.20;;;12.96;36.64;101266.91;5000534;28;19957;-79